Time;durP1;ratioP1;P1;durP2;ratioP2;P2;SDS_P1;SDS_P2;PMS_P1;PMS_P2;Temp;Humidity;BMP_temperature;BMP_pressure;BME280_temperature;BME280_humidity;BME280_pressure;Samples;Min_cycle;Max_cycle;Signal;HPM_P1;HPM_P2
2022/09/25 00:00:33;;;;;;;4.53;1.42;;;22.00;57.30;;;;;;4993239;28;20440;-68
2022/09/25 00:03:00;;;;;;;4.80;1.58;;;21.90;57.40;;;;;;4993095;28;20030;-69
2022/09/25 00:05:26;;;;;;;5.03;1.42;;;21.90;57.10;;;;;;4993212;28;20038;-70
2022/09/25 00:07:55;;;;;;;3.72;1.45;;;22.00;57.30;;;;;;4993558;28;20057;-70
2022/09/25 00:10:24;;;;;;;4.28;1.30;;;21.90;57.20;;;;;;4994400;28;20027;-70
2022/09/25 00:12:50;;;;;;;5.13;1.90;;;21.90;56.90;;;;;;4993759;28;20113;-70
2022/09/25 00:15:17;;;;;;;4.22;1.80;;;21.90;56.80;;;;;;4993876;28;20026;-70
2022/09/25 00:17:42;;;;;;;5.22;2.42;;;21.90;56.40;;;;;;4993099;28;20431;-72
2022/09/25 00:20:09;;;;;;;5.93;2.03;;;21.80;56.60;;;;;;4993021;28;20042;-72
2022/09/25 00:22:34;;;;;;;4.75;1.77;;;21.70;56.60;;;;;;4993465;28;20105;-69
2022/09/25 00:25:01;;;;;;;6.22;1.90;;;21.70;56.60;;;;;;4994101;28;20499;-72
2022/09/25 00:27:27;;;;;;;4.32;1.95;;;21.70;56.60;;;;;;4979102;28;20052;-70
2022/09/25 00:29:53;;;;;;;5.80;1.75;;;21.70;56.70;;;;;;4997056;28;20037;-70
2022/09/25 00:32:25;;;;;;;6.05;1.73;;;21.70;56.70;;;;;;4996768;28;20030;-71
2022/09/25 00:34:51;;;;;;;3.75;1.70;;;21.60;56.30;;;;;;4996523;28;20101;-70
2022/09/25 00:37:16;;;;;;;7.82;2.40;;;21.50;56.70;;;;;;4996889;28;20113;-69
2022/09/25 00:39:42;;;;;;;10.38;1.73;;;21.50;56.90;;;;;;4979799;28;20085;-69
2022/09/25 00:42:12;;;;;;;3.35;1.63;;;21.50;57.60;;;;;;4979520;28;20037;-71
2022/09/25 00:44:55;;;;;;;8.13;2.38;;;21.50;57.30;;;;;;4997313;28;20433;-73
2022/09/25 00:47:34;;;;;;;4.95;1.85;;;21.40;57.10;;;;;;4997087;28;20030;-75
2022/09/25 00:50:01;;;;;;;4.65;1.63;;;21.40;57.30;;;;;;4996707;28;20062;-69
2022/09/25 00:52:28;;;;;;;6.10;1.90;;;21.40;57.30;;;;;;4997082;28;20041;-70
2022/09/25 00:55:01;;;;;;;7.07;1.63;;;21.40;57.40;;;;;;4996822;28;20432;-71
2022/09/25 00:57:38;;;;;;;5.47;1.55;;;21.50;58.00;;;;;;4996750;28;20464;-69
2022/09/25 01:00:11;;;;;;;5.75;1.70;;;21.50;58.00;;;;;;4978716;28;20025;-71
2022/09/25 01:02:41;;;;;;;3.38;1.60;;;21.50;57.90;;;;;;4996165;28;20124;-73
2022/09/25 01:05:15;;;;;;;4.53;1.70;;;21.50;58.00;;;;;;4996225;28;20026;-71
2022/09/25 01:07:45;;;;;;;2.38;1.35;;;21.50;57.90;;;;;;4984937;28;20491;-72
2022/09/25 01:10:13;;;;;;;8.50;2.00;;;21.50;57.90;;;;;;4996793;28;20142;-71
2022/09/25 01:12:43;;;;;;;4.55;1.50;;;21.50;57.80;;;;;;4997019;28;20030;-77
2022/09/25 01:15:13;;;;;;;5.55;1.85;;;21.50;57.70;;;;;;4996462;28;20026;-74
2022/09/25 01:17:54;;;;;;;9.45;2.05;;;21.50;58.90;;;;;;4996659;28;20034;-72
2022/09/25 01:20:52;;;;;;;10.38;2.25;;;21.50;59.40;;;;;;4996679;28;20447;-71
2022/09/25 01:23:50;;;;;;;9.60;2.17;;;21.40;59.70;;;;;;4995403;28;20068;-71
2022/09/25 01:26:24;;;;;;;9.45;2.17;;;21.40;60.10;;;;;;4996697;28;20112;-77
2022/09/25 01:29:02;;;;;;;10.55;2.30;;;21.40;59.70;;;;;;4996569;28;20053;-72
2022/09/25 01:31:54;;;;;;;6.38;1.70;;;21.30;60.10;;;;;;4996534;28;20030;-77
2022/09/25 01:34:38;;;;;;;6.10;1.70;;;21.30;60.80;;;;;;4980792;28;20100;-78
2022/09/25 01:37:21;;;;;;;5.93;1.85;;;21.20;60.50;;;;;;4995949;28;20081;-76
2022/09/25 01:40:05;;;;;;;5.35;2.10;;;21.20;61.40;;;;;;4996175;28;20018;-70
2022/09/25 01:42:48;;;;;;;7.75;2.30;;;21.10;61.50;;;;;;4995650;28;20035;-74
2022/09/25 01:45:38;;;;;;;5.65;2.03;;;21.10;61.70;;;;;;4996175;28;20030;-72
2022/09/25 01:48:08;;;;;;;8.38;2.10;;;21.10;62.70;;;;;;4988739;28;20314;-77
2022/09/25 01:50:49;;;;;;;10.88;2.22;;;21.00;63.40;;;;;;4996092;28;20109;-72
2022/09/25 01:53:20;;;;;;;9.25;2.45;;;21.00;65.00;;;;;;4995970;28;20034;-72
2022/09/25 01:55:57;;;;;;;10.07;2.35;;;20.80;65.30;;;;;;4995709;28;20034;-78
2022/09/25 01:58:43;;;;;;;6.03;2.10;;;20.70;65.20;;;;;;4995801;28;20037;-78
2022/09/25 02:01:15;;;;;;;8.32;2.60;;;20.70;66.40;;;;;;4995975;28;20384;-77
2022/09/25 02:04:08;;;;;;;5.93;2.20;;;20.60;66.80;;;;;;4995492;28;20403;-75
2022/09/25 02:06:37;;;;;;;7.65;2.65;;;20.60;67.40;;;;;;4995060;28;20037;-76
2022/09/25 02:09:12;;;;;;;8.07;2.63;;;20.50;67.40;;;;;;4995305;28;20053;-74
2022/09/25 02:11:46;;;;;;;7.50;2.50;;;20.40;67.80;;;;;;4994931;28;20019;-76
2022/09/25 02:14:27;;;;;;;9.20;3.33;;;20.40;69.50;;;;;;4994816;28;20428;-73
2022/09/25 02:16:56;;;;;;;8.00;2.40;;;20.30;70.10;;;;;;4998392;28;20034;-75
2022/09/25 02:22:24;;;;;;;9.77;2.30;;;20.00;72.30;;;;;;4997005;28;20077;-71
2022/09/25 02:24:56;;;;;;;9.75;2.63;;;20.00;73.20;;;;;;4996223;28;20026;-73
2022/09/25 02:27:26;;;;;;;9.98;2.47;;;20.00;72.70;;;;;;4977847;28;20120;-71
2022/09/25 02:29:53;;;;;;;7.35;2.20;;;20.00;72.90;;;;;;4994149;28;20069;-70
2022/09/25 02:32:27;;;;;;;8.07;2.55;;;20.00;73.70;;;;;;4994842;28;20047;-70
2022/09/25 02:34:53;;;;;;;7.22;2.38;;;20.00;75.60;;;;;;4994601;28;20026;-73
2022/09/25 02:37:19;;;;;;;6.93;2.22;;;19.80;75.40;;;;;;4994664;28;20039;-74
2022/09/25 02:39:52;;;;;;;6.38;2.17;;;19.80;76.00;;;;;;4994680;28;20026;-72
2022/09/25 02:42:55;;;;;;;4.47;2.00;;;19.80;76.20;;;;;;4994733;28;20511;-71
2022/09/25 02:45:37;;;;;;;6.32;2.33;;;19.80;78.10;;;;;;4994497;28;20375;-78
2022/09/25 02:48:23;;;;;;;8.05;2.00;;;19.70;78.70;;;;;;5000890;28;20030;-70
2022/09/25 02:51:12;;;;;;;5.47;2.13;;;19.80;79.30;;;;;;5001418;28;20044;-76
2022/09/25 02:54:12;;;;;;;5.82;3.10;;;19.80;79.50;;;;;;5000036;28;20049;-75
2022/09/25 02:56:48;;;;;;;5.82;2.10;;;19.80;80.90;;;;;;4999705;28;20093;-73
2022/09/25 02:59:21;;;;;;;6.30;1.90;;;19.80;80.00;;;;;;4978060;28;20030;-79
2022/09/25 03:01:48;;;;;;;3.15;1.80;;;19.70;80.50;;;;;;4995314;28;20072;-75
2022/09/25 03:04:16;;;;;;;6.22;2.28;;;19.70;82.20;;;;;;4978365;28;20041;-79
2022/09/25 03:06:43;;;;;;;5.82;2.17;;;19.70;82.50;;;;;;4994985;28;20026;-73
2022/09/25 03:09:12;;;;;;;5.20;2.05;;;19.70;82.80;;;;;;4994884;28;20373;-76
2022/09/25 03:11:42;;;;;;;5.57;2.22;;;19.70;83.60;;;;;;4995040;28;20083;-78
2022/09/25 03:14:08;;;;;;;4.30;2.15;;;19.60;83.80;;;;;;4994027;28;20034;-73
2022/09/25 03:16:55;;;;;;;4.68;2.38;;;19.70;84.60;;;;;;4978150;28;20043;-79
2022/09/25 03:19:22;;;;;;;6.28;2.17;;;19.70;85.10;;;;;;4995223;28;20026;-72
2022/09/25 03:21:49;;;;;;;5.57;2.40;;;19.70;84.90;;;;;;4995240;28;20018;-75
2022/09/25 03:24:17;;;;;;;7.65;2.40;;;19.80;85.30;;;;;;4994780;28;20484;-77
2022/09/25 03:26:44;;;;;;;6.03;2.40;;;19.80;86.10;;;;;;4994989;28;20084;-72
2022/09/25 03:29:12;;;;;;;6.20;2.60;;;19.80;87.10;;;;;;4994639;28;20372;-72
2022/09/25 03:31:40;;;;;;;5.18;2.40;;;19.80;87.10;;;;;;4994922;28;20019;-77
2022/09/25 03:34:07;;;;;;;4.25;2.20;;;19.80;88.40;;;;;;4995255;28;20030;-73
2022/09/25 03:36:34;;;;;;;5.50;2.20;;;19.80;88.20;;;;;;4995257;28;20023;-75
2022/09/25 03:39:01;;;;;;;6.95;2.42;;;19.80;89.00;;;;;;4995869;28;20027;-78
2022/09/25 03:41:30;;;;;;;7.22;2.58;;;19.90;89.70;;;;;;4994999;28;20030;-81
2022/09/25 03:43:57;;;;;;;4.78;2.30;;;19.90;89.60;;;;;;4995592;28;20387;-76
2022/09/25 03:46:42;;;;;;;4.32;1.92;;;20.00;89.70;;;;;;4997962;28;20046;-73
2022/09/25 03:49:09;;;;;;;2.95;1.52;;;20.00;90.10;;;;;;5002414;28;20038;-69
2022/09/25 03:51:35;;;;;;;4.72;1.60;;;20.10;89.80;;;;;;5001267;28;20015;-70
2022/09/25 03:54:02;;;;;;;4.35;2.22;;;20.10;89.80;;;;;;4999597;28;20056;-76
2022/09/25 03:56:28;;;;;;;3.95;1.70;;;20.20;89.70;;;;;;4997254;28;20394;-69
2022/09/25 03:58:56;;;;;;;6.43;2.10;;;20.20;89.80;;;;;;4999111;28;20034;-70
2022/09/25 04:01:24;;;;;;;3.15;1.90;;;20.20;89.90;;;;;;4999766;28;20027;-80
2022/09/25 04:03:50;;;;;;;3.67;1.77;;;20.30;90.00;;;;;;4998489;28;20054;-75
2022/09/25 04:06:20;;;;;;;5.72;1.80;;;20.30;90.00;;;;;;4998464;28;20097;-73
2022/09/25 04:08:47;;;;;;;4.55;1.95;;;20.30;89.90;;;;;;4998342;28;20495;-73
2022/09/25 04:11:18;;;;;;;5.70;1.90;;;20.30;90.00;;;;;;4998337;28;20042;-74
2022/09/25 04:13:44;;;;;;;5.00;2.17;;;20.30;90.40;;;;;;4998270;28;20121;-74
2022/09/25 04:16:11;;;;;;;4.15;2.00;;;20.30;90.20;;;;;;4998129;28;20052;-76
2022/09/25 04:18:37;;;;;;;3.83;2.15;;;20.30;90.30;;;;;;4998164;28;20053;-70
2022/09/25 04:21:07;;;;;;;11.63;2.75;;;20.30;90.30;;;;;;4998066;28;20023;-70
2022/09/25 04:23:33;;;;;;;6.43;2.53;;;20.30;90.30;;;;;;4997733;28;20076;-70
2022/09/25 04:25:59;;;;;;;4.63;1.88;;;20.30;90.40;;;;;;4997807;28;20018;-74
2022/09/25 04:28:25;;;;;;;8.18;2.08;;;20.30;90.70;;;;;;4997894;28;20037;-71
2022/09/25 04:30:52;;;;;;;4.25;1.88;;;20.20;90.90;;;;;;4998669;28;20022;-69
2022/09/25 04:36:04;;;;;;;4.05;2.00;;;20.20;91.50;;;;;;4998170;28;20037;-70
2022/09/25 04:38:31;;;;;;;6.45;2.20;;;20.20;91.60;;;;;;4997179;28;20038;-69
2022/09/25 04:40:59;;;;;;;3.70;2.20;;;20.20;91.40;;;;;;4997611;28;20383;-70
2022/09/25 04:43:46;;;;;;;4.93;1.85;;;20.10;91.20;;;;;;4997675;28;20137;-74
2022/09/25 04:46:13;;;;;;;3.92;2.15;;;20.10;91.20;;;;;;4995450;28;20081;-69
2022/09/25 04:48:43;;;;;;;3.85;1.98;;;20.00;91.10;;;;;;4996898;28;20022;-74
2022/09/25 04:51:11;;;;;;;3.55;1.90;;;19.90;90.90;;;;;;4997003;28;20031;-72
2022/09/25 04:53:37;;;;;;;5.60;2.00;;;19.90;90.80;;;;;;4997130;28;20073;-70
2022/09/25 04:56:06;;;;;;;4.25;2.10;;;19.80;91.00;;;;;;4997024;28;20038;-69
2022/09/25 04:58:32;;;;;;;4.85;2.40;;;19.80;90.60;;;;;;4979528;28;20077;-71
2022/09/25 05:01:07;;;;;;;3.25;1.88;;;19.70;90.60;;;;;;4996993;28;20026;-69
2022/09/25 05:03:33;;;;;;;4.05;2.15;;;19.70;90.50;;;;;;4996654;28;20421;-69
2022/09/25 05:05:59;;;;;;;5.30;2.20;;;19.60;90.50;;;;;;4996347;28;20033;-70
2022/09/25 05:08:26;;;;;;;4.03;2.03;;;19.60;90.50;;;;;;4990877;28;20077;-69
2022/09/25 05:10:55;;;;;;;3.45;1.88;;;19.70;90.40;;;;;;4995877;28;20038;-73
2022/09/25 05:13:20;;;;;;;3.70;1.77;;;19.70;90.40;;;;;;4996508;28;20039;-70
2022/09/25 05:15:46;;;;;;;4.72;2.20;;;19.70;90.10;;;;;;4996295;28;20019;-70
2022/09/25 05:18:20;;;;;;;3.53;2.03;;;19.70;90.00;;;;;;4996123;28;20506;-69
2022/09/25 05:20:47;;;;;;;5.03;2.40;;;19.70;90.20;;;;;;4995972;28;20049;-71
2022/09/25 05:23:15;;;;;;;4.25;1.88;;;19.80;89.90;;;;;;4996018;28;20026;-70
2022/09/25 05:25:40;;;;;;;3.88;2.05;;;19.70;89.70;;;;;;4996066;28;20018;-69
2022/09/25 05:28:08;;;;;;;4.30;2.10;;;19.70;89.60;;;;;;4997068;28;20030;-70
2022/09/25 05:30:35;;;;;;;5.55;1.95;;;19.60;90.00;;;;;;4995987;28;20026;-68
2022/09/25 05:33:03;;;;;;;4.35;2.15;;;19.60;90.00;;;;;;4996994;28;20137;-71
2022/09/25 05:35:31;;;;;;;3.97;2.00;;;19.60;90.10;;;;;;4996722;28;20043;-73
2022/09/25 05:37:57;;;;;;;3.15;1.90;;;19.60;89.70;;;;;;4996667;28;20034;-70
2022/09/25 05:40:23;;;;;;;3.38;1.92;;;19.60;89.90;;;;;;4995622;28;20026;-70
2022/09/25 05:42:49;;;;;;;4.55;2.00;;;19.60;89.90;;;;;;4995618;28;20026;-70
2022/09/25 05:45:16;;;;;;;3.08;2.00;;;19.60;90.00;;;;;;4995472;28;20049;-70
2022/09/25 05:47:42;;;;;;;3.22;1.95;;;19.60;89.70;;;;;;4995545;28;20360;-77
2022/09/25 05:50:09;;;;;;;4.68;2.13;;;19.50;89.50;;;;;;4995300;28;20500;-73
2022/09/25 05:52:35;;;;;;;6.45;2.40;;;19.50;89.70;;;;;;4994855;28;20365;-76
2022/09/25 05:55:02;;;;;;;6.45;1.95;;;19.50;89.90;;;;;;4994858;28;20026;-69
2022/09/25 05:57:35;;;;;;;4.88;2.10;;;19.60;90.00;;;;;;4994934;28;20511;-70
2022/09/25 06:00:07;;;;;;;4.05;2.10;;;19.60;89.80;;;;;;4994851;28;20014;-71
2022/09/25 06:02:34;;;;;;;5.20;2.10;;;19.70;89.50;;;;;;4994650;28;20089;-70
2022/09/25 06:05:00;;;;;;;4.07;2.10;;;19.70;89.80;;;;;;4994708;28;20033;-75
2022/09/25 06:07:25;;;;;;;4.20;2.10;;;19.70;89.40;;;;;;4994638;28;20046;-70
2022/09/25 06:09:53;;;;;;;5.25;2.35;;;19.70;89.10;;;;;;4994655;28;20431;-69
2022/09/25 06:12:19;;;;;;;3.40;2.30;;;19.80;89.60;;;;;;4994567;28;20458;-69
2022/09/25 06:14:45;;;;;;;3.55;2.05;;;19.80;89.40;;;;;;4994207;28;20546;-70
2022/09/25 06:17:12;;;;;;;4.70;2.53;;;19.80;89.30;;;;;;4994643;28;20038;-73
2022/09/25 06:19:39;;;;;;;4.93;2.50;;;19.80;89.50;;;;;;4995097;28;20361;-69
2022/09/25 06:22:05;;;;;;;7.43;2.90;;;19.80;89.70;;;;;;4995740;28;20104;-69
2022/09/25 06:24:30;;;;;;;7.55;2.40;;;19.80;89.50;;;;;;4994813;28;20472;-71
2022/09/25 06:26:56;;;;;;;6.13;2.67;;;19.80;89.50;;;;;;4976846;28;20030;-70
2022/09/25 06:29:23;;;;;;;23.25;18.10;;;19.80;89.50;;;;;;4994949;28;20483;-69
2022/09/25 06:31:50;;;;;;;5.68;3.38;;;19.80;90.00;;;;;;4994424;28;20069;-79
2022/09/25 06:34:18;;;;;;;5.55;2.83;;;19.80;89.60;;;;;;4993917;28;20386;-74
2022/09/25 06:36:44;;;;;;;3.95;2.30;;;19.80;90.10;;;;;;4994273;28;20115;-72
2022/09/25 06:39:09;;;;;;;3.83;1.88;;;19.80;89.80;;;;;;4994209;28;20502;-71
2022/09/25 06:41:35;;;;;;;4.70;1.77;;;19.80;89.70;;;;;;4994107;28;20126;-70
2022/09/25 06:44:01;;;;;;;3.85;1.67;;;19.80;89.30;;;;;;4993693;28;20056;-69
2022/09/25 06:46:27;;;;;;;3.47;2.00;;;19.80;89.20;;;;;;4993242;28;20031;-70
2022/09/25 06:48:54;;;;;;;3.53;1.58;;;19.80;89.40;;;;;;4993852;28;20030;-71
2022/09/25 06:51:23;;;;;;;3.40;1.80;;;19.80;89.00;;;;;;4994055;28;20037;-74
2022/09/25 06:53:52;;;;;;;3.40;1.80;;;19.80;89.20;;;;;;4994177;28;20095;-70
2022/09/25 06:56:18;;;;;;;6.05;2.03;;;19.80;89.00;;;;;;4976381;28;20048;-73
2022/09/25 06:58:44;;;;;;;5.50;3.63;;;19.90;88.80;;;;;;4994239;28;20038;-71
2022/09/25 07:01:10;;;;;;;8.45;3.40;;;20.00;89.10;;;;;;4993824;28;20022;-70
2022/09/25 07:03:46;;;;;;;5.10;2.10;;;20.00;88.70;;;;;;4976257;28;20046;-71
2022/09/25 07:06:25;;;;;;;5.13;2.85;;;20.00;88.70;;;;;;4993512;28;20061;-71
2022/09/25 07:08:51;;;;;;;8.07;4.45;;;20.10;88.20;;;;;;4993471;28;20089;-70
2022/09/25 07:11:21;;;;;;;4.60;2.60;;;20.10;88.30;;;;;;4993712;28;20367;-71
2022/09/25 07:13:53;;;;;;;4.45;2.40;;;20.20;88.20;;;;;;4993358;28;20030;-70
2022/09/25 07:16:21;;;;;;;3.87;2.17;;;20.30;88.10;;;;;;4993422;28;20411;-69
2022/09/25 07:18:47;;;;;;;4.40;1.80;;;20.30;88.00;;;;;;4975881;28;20064;-71
2022/09/25 07:21:15;;;;;;;5.30;1.70;;;20.30;87.50;;;;;;4993235;28;20030;-69
2022/09/25 07:23:42;;;;;;;2.88;1.80;;;20.40;87.10;;;;;;4993144;28;20034;-71
2022/09/25 07:26:13;;;;;;;3.90;2.30;;;20.40;86.90;;;;;;4993358;28;20034;-70
2022/09/25 07:28:40;;;;;;;7.22;3.60;;;20.50;87.10;;;;;;4993188;28;20026;-70
2022/09/25 07:31:21;;;;;;;4.75;2.88;;;20.50;87.40;;;;;;4993524;28;20409;-71
2022/09/25 07:33:47;;;;;;;5.07;2.70;;;20.60;87.60;;;;;;4992760;28;20472;-72
2022/09/25 07:36:15;;;;;;;5.43;2.53;;;20.60;87.90;;;;;;4993171;28;20136;-69
2022/09/25 07:38:41;;;;;;;5.82;2.83;;;20.70;88.00;;;;;;4993138;28;20072;-70
2022/09/25 07:41:09;;;;;;;8.77;2.72;;;20.70;88.50;;;;;;4992921;28;20022;-74
2022/09/25 07:43:37;;;;;;;7.57;4.88;;;20.70;88.70;;;;;;4992967;28;20496;-71
2022/09/25 07:46:04;;;;;;;11.88;7.65;;;20.80;89.20;;;;;;4992898;28;20041;-73
2022/09/25 07:48:30;;;;;;;8.10;5.20;;;20.80;88.90;;;;;;4992864;28;20510;-80
2022/09/25 07:51:04;;;;;;;7.80;5.03;;;20.70;88.80;;;;;;4975462;28;20389;-71
2022/09/25 07:53:30;;;;;;;7.93;3.35;;;20.80;89.10;;;;;;4992743;28;20026;-71
2022/09/25 07:55:58;;;;;;;7.22;3.75;;;20.80;89.00;;;;;;4992484;28;20053;-69
2022/09/25 07:58:24;;;;;;;6.00;3.17;;;20.80;88.90;;;;;;4992641;28;20380;-74
2022/09/25 08:00:51;;;;;;;9.95;2.90;;;20.80;88.90;;;;;;4992455;28;20101;-74
2022/09/25 08:03:16;;;;;;;4.72;3.00;;;20.90;88.70;;;;;;4992473;28;20026;-72
2022/09/25 08:05:42;;;;;;;5.95;3.30;;;20.90;88.30;;;;;;4992876;28;20049;-69
2022/09/25 08:08:08;;;;;;;6.10;3.30;;;20.90;87.90;;;;;;4986104;28;20054;-69
2022/09/25 08:10:34;;;;;;;6.25;3.55;;;21.00;88.00;;;;;;4994400;28;20061;-75
2022/09/25 08:13:00;;;;;;;5.57;3.13;;;21.00;88.10;;;;;;4992514;28;20067;-70
2022/09/25 08:15:25;;;;;;;6.53;3.42;;;21.00;88.30;;;;;;4992954;28;20049;-71
2022/09/25 08:17:51;;;;;;;7.15;4.65;;;21.00;88.30;;;;;;4992550;28;20142;-69
2022/09/25 08:20:18;;;;;;;7.22;4.60;;;21.00;88.70;;;;;;4992155;28;20070;-69
2022/09/25 08:22:43;;;;;;;6.88;4.43;;;21.00;88.60;;;;;;4991644;28;20381;-74
2022/09/25 08:25:11;;;;;;;10.63;7.38;;;21.00;88.40;;;;;;4992965;28;20014;-70
2022/09/25 08:27:42;;;;;;;7.47;4.10;;;21.00;88.50;;;;;;4992803;28;20081;-69
2022/09/25 08:30:10;;;;;;;6.50;3.78;;;21.00;88.90;;;;;;4992527;28;20034;-68
2022/09/25 08:32:36;;;;;;;5.55;3.63;;;21.10;88.60;;;;;;4992614;28;20063;-77
2022/09/25 08:35:03;;;;;;;8.90;3.97;;;21.20;88.40;;;;;;4992621;28;20062;-75
2022/09/25 08:37:30;;;;;;;7.43;3.85;;;21.30;88.20;;;;;;4992572;28;20369;-70
2022/09/25 08:39:57;;;;;;;6.88;3.63;;;21.30;88.20;;;;;;4979334;28;20094;-69
2022/09/25 08:42:34;;;;;;;6.15;4.05;;;21.30;88.00;;;;;;4973138;28;20054;-72
2022/09/25 08:50:36;;;;;;;6.13;3.45;;;21.40;87.10;;;;;;4978902;28;20042;-74
2022/09/25 08:53:14;;;;;;;5.80;2.60;;;21.40;87.10;;;;;;4975244;28;20120;-69
2022/09/25 08:58:41;;;;;;;6.25;2.95;;;21.50;86.20;;;;;;4995800;28;20093;-73
2022/09/25 09:01:15;;;;;;;43.80;29.90;;;21.50;85.70;;;;;;4982329;28;20035;-72
2022/09/25 09:03:51;;;;;;;13.38;8.55;;;21.60;86.40;;;;;;4975080;28;20177;-70
2022/09/25 09:06:17;;;;;;;7.35;3.70;;;21.70;86.00;;;;;;4976062;28;20104;-68
2022/09/25 09:08:50;;;;;;;10.13;3.78;;;21.70;85.20;;;;;;4975682;28;20046;-69
2022/09/25 09:11:24;;;;;;;7.40;3.22;;;21.70;84.60;;;;;;4958304;28;20026;-70
2022/09/25 09:14:02;;;;;;;7.78;3.40;;;21.80;84.50;;;;;;4978608;28;20033;-69
2022/09/25 09:16:31;;;;;;;4.80;3.10;;;21.80;84.50;;;;;;4980739;28;20049;-70
2022/09/25 09:19:04;;;;;;;5.18;3.03;;;21.80;84.60;;;;;;4995486;28;20026;-77
2022/09/25 09:21:37;;;;;;;5.55;3.00;;;21.80;85.40;;;;;;4977876;28;20492;-69
2022/09/25 09:24:26;;;;;;;5.00;2.83;;;21.80;85.30;;;;;;4995531;28;20030;-70
2022/09/25 09:27:02;;;;;;;4.95;3.00;;;21.90;85.30;;;;;;4995528;28;20472;-70
2022/09/25 09:29:31;;;;;;;7.22;3.28;;;22.00;84.90;;;;;;4995299;28;20539;-73
2022/09/25 09:32:19;;;;;;;7.82;2.90;;;22.10;84.30;;;;;;4995212;28;20102;-71
2022/09/25 09:34:45;;;;;;;6.95;3.03;;;22.10;84.50;;;;;;4994851;28;20022;-71
2022/09/25 09:37:31;;;;;;;6.05;3.17;;;22.20;83.40;;;;;;4994899;28;20360;-73
2022/09/25 09:40:31;;;;;;;8.05;3.28;;;22.30;84.10;;;;;;4994825;28;20379;-74
2022/09/25 09:43:02;;;;;;;11.65;4.05;;;22.40;83.70;;;;;;4994800;28;20475;-70
2022/09/25 09:45:31;;;;;;;13.20;3.70;;;22.60;83.90;;;;;;4994543;28;20114;-73
2022/09/25 09:48:19;;;;;;;4.38;2.53;;;22.70;82.70;;;;;;4994949;28;20077;-71
2022/09/25 09:50:51;;;;;;;8.50;3.10;;;22.70;82.80;;;;;;4979597;28;20117;-71
2022/09/25 09:53:43;;;;;;;7.22;2.72;;;22.80;81.80;;;;;;4975052;28;20117;-70
2022/09/25 09:56:16;;;;;;;5.85;2.85;;;22.90;81.70;;;;;;4975242;28;20436;-69
2022/09/25 09:58:49;;;;;;;10.07;3.10;;;23.00;81.10;;;;;;4975159;28;20081;-72
2022/09/25 10:01:17;;;;;;;6.20;2.55;;;23.00;80.90;;;;;;4975175;28;20038;-71
2022/09/25 10:03:46;;;;;;;6.05;2.45;;;23.10;80.30;;;;;;4974991;28;20030;-70
2022/09/25 10:06:16;;;;;;;15.88;4.00;;;23.20;80.20;;;;;;4975311;28;20049;-70
2022/09/25 10:08:42;;;;;;;8.70;3.95;;;23.30;79.90;;;;;;4974669;28;20047;-68
2022/09/25 10:11:16;;;;;;;8.45;4.30;;;23.40;80.20;;;;;;4974786;28;20031;-72
2022/09/25 10:13:43;;;;;;;10.35;4.13;;;23.50;79.40;;;;;;4974911;28;20030;-72
2022/09/25 10:16:11;;;;;;;14.05;3.70;;;23.60;78.60;;;;;;4974442;28;20033;-72
2022/09/25 10:18:51;;;;;;;6.72;2.88;;;23.70;78.50;;;;;;4974831;28;20065;-70
2022/09/25 10:21:23;;;;;;;10.05;3.60;;;23.70;78.10;;;;;;4974680;28;20023;-71
2022/09/25 10:23:54;;;;;;;6.38;4.05;;;23.70;78.50;;;;;;4957386;28;20364;-70
2022/09/25 10:26:36;;;;;;;7.97;4.03;;;23.80;78.30;;;;;;4974375;28;20035;-69
2022/09/25 10:29:18;;;;;;;9.05;3.83;;;23.90;78.10;;;;;;4974599;28;20022;-71
2022/09/25 10:31:43;;;;;;;7.63;2.55;;;24.00;77.20;;;;;;4957109;28;20031;-71
2022/09/25 10:34:12;;;;;;;5.95;2.58;;;24.10;76.90;;;;;;4974308;28;20034;-69
2022/09/25 10:36:44;;;;;;;3.78;2.13;;;24.10;76.30;;;;;;4956814;28;20045;-69
2022/09/25 10:39:31;;;;;;;4.80;2.15;;;24.20;76.40;;;;;;4957038;28;20019;-68
2022/09/25 10:41:59;;;;;;;7.70;2.47;;;24.30;75.60;;;;;;4974306;28;20122;-70
2022/09/25 10:44:36;;;;;;;4.80;2.33;;;24.30;75.10;;;;;;4974138;28;20457;-70
2022/09/25 10:50:17;;;;;;;3.75;2.10;;;24.60;74.60;;;;;;4974436;28;20049;-70
2022/09/25 10:52:57;;;;;;;6.00;2.50;;;24.70;73.50;;;;;;4974159;28;20085;-70
2022/09/25 10:55:36;;;;;;;3.05;1.80;;;24.80;73.00;;;;;;4974254;28;20176;-69
2022/09/25 10:58:25;;;;;;;4.47;1.90;;;24.90;72.50;;;;;;4974133;28;20039;-69
2022/09/25 11:00:54;;;;;;;7.03;2.25;;;25.00;72.10;;;;;;4973805;28;20029;-71
2022/09/25 11:03:22;;;;;;;6.90;2.85;;;25.10;72.40;;;;;;4974009;28;20636;-69
2022/09/25 11:05:59;;;;;;;6.03;2.45;;;25.30;71.60;;;;;;4973760;28;20098;-70
2022/09/25 11:08:31;;;;;;;6.22;2.55;;;25.40;70.70;;;;;;4973181;28;20046;-70
2022/09/25 11:10:59;;;;;;;4.40;1.98;;;25.50;70.70;;;;;;4973768;28;20030;-70
2022/09/25 11:13:27;;;;;;;5.10;2.20;;;25.40;70.30;;;;;;4973796;28;20421;-71
2022/09/25 11:16:00;;;;;;;5.65;2.05;;;25.40;70.10;;;;;;4973522;28;20483;-69
2022/09/25 11:18:48;;;;;;;3.53;1.70;;;25.40;70.10;;;;;;4973931;28;20481;-70
2022/09/25 11:21:22;;;;;;;4.50;2.05;;;25.30;68.20;;;;;;4973868;28;20029;-70
2022/09/25 11:24:03;;;;;;;3.53;2.00;;;25.20;68.10;;;;;;4973618;28;20098;-70
2022/09/25 11:26:41;;;;;;;5.90;2.13;;;25.20;67.90;;;;;;4973476;28;20488;-71
2022/09/25 11:29:22;;;;;;;4.20;1.90;;;25.20;69.20;;;;;;4973495;28;20038;-70
2022/09/25 11:32:11;;;;;;;5.60;2.17;;;25.20;67.80;;;;;;4973688;28;20023;-71
2022/09/25 11:35:03;;;;;;;4.75;2.00;;;25.20;68.60;;;;;;4953022;28;20489;-70
2022/09/25 11:37:51;;;;;;;4.60;1.88;;;25.20;67.40;;;;;;4973450;28;20113;-69
2022/09/25 11:43:53;;;;;;;5.97;1.90;;;25.00;67.40;;;;;;4973901;28;20384;-68
2022/09/25 11:46:36;;;;;;;4.50;2.08;;;25.00;67.70;;;;;;4973148;28;20043;-70
2022/09/25 11:49:17;;;;;;;7.70;2.10;;;24.90;68.10;;;;;;4955738;28;20026;-74
2022/09/25 11:52:22;;;;;;;10.13;3.05;;;24.80;69.20;;;;;;4973442;28;20113;-73
2022/09/25 11:55:18;;;;;;;11.95;2.55;;;24.80;68.80;;;;;;4973614;28;20030;-74
2022/09/25 11:57:55;;;;;;;9.07;3.15;;;24.60;69.00;;;;;;4956054;28;20050;-76
2022/09/25 12:00:29;;;;;;;9.70;2.70;;;24.50;70.90;;;;;;4973687;28;20019;-74
2022/09/25 12:03:10;;;;;;;7.75;2.30;;;24.40;70.40;;;;;;4973556;28;20034;-70
2022/09/25 12:05:49;;;;;;;9.85;2.30;;;24.10;72.70;;;;;;4972907;28;20027;-74
2022/09/25 12:08:36;;;;;;;10.60;2.67;;;24.00;74.20;;;;;;4973344;28;20059;-71
2022/09/25 12:11:13;;;;;;;5.85;2.05;;;23.90;73.90;;;;;;4973379;28;20031;-73
2022/09/25 12:13:48;;;;;;;4.32;1.90;;;23.80;73.90;;;;;;4973583;28;20034;-72
2022/09/25 12:16:22;;;;;;;7.60;2.60;;;23.70;74.90;;;;;;4955879;28;20055;-72
2022/09/25 12:18:55;;;;;;;16.38;9.23;;;23.70;76.10;;;;;;4973578;28;20015;-73
2022/09/25 12:21:47;;;;;;;7.65;2.60;;;23.60;74.90;;;;;;4975071;28;20117;-73
2022/09/25 12:24:37;;;;;;;5.35;2.67;;;23.60;75.50;;;;;;4976754;28;20027;-72
2022/09/25 12:27:19;;;;;;;5.00;1.77;;;23.60;76.00;;;;;;4977267;28;20038;-74
2022/09/25 12:30:22;;;;;;;4.85;1.85;;;23.60;76.20;;;;;;4977076;28;20039;-74
2022/09/25 12:33:11;;;;;;;5.20;2.28;;;23.40;77.50;;;;;;4970462;28;20035;-73
2022/09/25 12:35:37;;;;;;;5.60;2.10;;;23.30;77.80;;;;;;4976674;28;20042;-75
2022/09/25 12:38:30;;;;;;;5.10;2.10;;;23.30;78.40;;;;;;4976622;28;20038;-75
2022/09/25 12:41:17;;;;;;;5.32;2.45;;;23.20;79.80;;;;;;4976654;28;20054;-74
2022/09/25 12:43:47;;;;;;;6.40;2.58;;;23.20;80.20;;;;;;4962084;28;20035;-74
2022/09/25 12:46:28;;;;;;;7.60;2.53;;;23.10;79.70;;;;;;4976928;28;20078;-75
2022/09/25 12:49:04;;;;;;;5.93;2.42;;;23.10;80.50;;;;;;4976786;28;20022;-75
2022/09/25 12:51:51;;;;;;;5.82;2.25;;;23.10;81.70;;;;;;4976522;28;20031;-74
2022/09/25 12:54:41;;;;;;;7.38;2.30;;;23.10;82.20;;;;;;4976563;28;20110;-76
2022/09/25 12:57:16;;;;;;;4.40;1.88;;;23.00;82.30;;;;;;4976445;28;20034;-70
2022/09/25 13:00:04;;;;;;;5.18;1.83;;;22.90;82.30;;;;;;4976161;28;20058;-72
2022/09/25 13:02:50;;;;;;;5.80;2.05;;;22.80;81.20;;;;;;4976453;28;20058;-72
2022/09/25 13:05:33;;;;;;;7.60;2.17;;;22.80;82.30;;;;;;4976286;28;20085;-73
2022/09/25 13:08:27;;;;;;;6.20;2.15;;;22.80;82.40;;;;;;4976183;28;20481;-70
2022/09/25 13:11:08;;;;;;;7.82;2.08;;;22.80;82.50;;;;;;4976511;28;20034;-74
2022/09/25 13:13:43;;;;;;;5.10;1.70;;;22.70;81.60;;;;;;4976693;28;20422;-74
2022/09/25 13:16:09;;;;;;;6.07;2.33;;;22.70;81.70;;;;;;4976300;28;20023;-74
2022/09/25 13:18:35;;;;;;;6.80;2.20;;;22.70;82.30;;;;;;4976423;28;20045;-76
2022/09/25 13:21:30;;;;;;;5.72;2.10;;;22.70;82.10;;;;;;4976367;28;20027;-73
2022/09/25 13:23:58;;;;;;;4.07;1.90;;;22.70;83.00;;;;;;4976084;28;20422;-74
2022/09/25 13:26:29;;;;;;;6.28;2.15;;;22.70;82.20;;;;;;4976421;28;20113;-75
2022/09/25 13:28:56;;;;;;;5.10;2.00;;;22.60;83.30;;;;;;4976532;28;20109;-75
2022/09/25 13:31:26;;;;;;;6.00;2.22;;;22.60;84.30;;;;;;4975402;28;20027;-72
2022/09/25 13:34:14;;;;;;;5.35;2.13;;;22.60;88.20;;;;;;4975672;28;20106;-71